Flight Track Log - Related Links

Times and Time Zones

All times are in EDT time to prevent confusion due to time zone crossing. See the ASA463 flight status page for this flight to view local times or setup timezone preferences in your user account.

Time Position Orientation Groundspeed Altitude Reporting Facility
EDT Latitude Longitude Course Direction KTS MPH feet Rate Location/Type
Sat 11:48:20 PM 33.9333 -118.4667 338° Northwest 204 235 2,200  Level Southern California TRACON
Sat 11:49:45 PM 33.9222 -118.5797 263° West 244 281 5,700 2,449 Climbing Los Angeles Center
Sat 11:50:47 PM 33.9556 -118.6553 298° West 284 327 8,200 2,585 Climbing Los Angeles Center
Sat 11:51:48 PM 34.0422 -118.6422 North 296 341 11,000 2,557 Climbing Los Angeles Center
Sat 11:52:49 PM 34.1211 -118.6297 North 306 352 13,400 2,000 Climbing Los Angeles Center
Sat 11:53:00 PM 34.4646 -118.6906 338° Northwest  Level FlightAware Approximate
Sat 11:53:51 PM 34.2136 -118.6514 349° North 336 387 15,100  Level Los Angeles Center
Sat 11:54:52 PM 34.3244 -118.6847 346° North 411 473 16,200 1,623 Climbing Los Angeles Center
Sat 11:55:53 PM 34.4439 -118.7169 347° North 439 505 18,400 2,146 Climbing Los Angeles Center
Sat 11:56:55 PM 34.5633 -118.7522 346° North 440 506 20,600 2,000 Climbing Los Angeles Center
Sat 11:57:56 PM 34.7103 -118.7969 346° North 454 522 22,500 1,433 Climbing Los Angeles Center
Sat 11:59:09 PM 34.8383 -118.8344 346° North 467 537 23,800 1,511 Climbing Los Angeles Center
Sun 12:00:11 AM 35.0042 -118.8831 346° North 489 563 25,900 1,378 Climbing Los Angeles Center
Sun 12:01:24 AM 35.1386 -118.9214 347° North 497 572 26,900 978 Climbing Los Angeles Center
Sun 12:02:26 AM 35.3072 -118.9706 347° North 519 597 28,100 1,220 Climbing Los Angeles Center
Sun 12:03:27 AM 35.4464 -119.0131 346° North 517 595 29,400 1,279 Climbing Los Angeles Center
Sun 12:04:28 AM 35.5858 -119.0536 347° North 517 595 30,700 1,317 Climbing Los Angeles Center
Sun 12:05:30 AM 35.7261 -119.0961 346° North 518 596 32,100 1,610 Climbing Los Angeles Center
Sun 12:06:31 AM 35.8600 -119.1372 346° North 505 581 34,000 1,525 Climbing Los Angeles Center
Sun 12:07:32 AM 35.9917 -119.1775 346° North 492 566 35,200 1,082 Climbing Los Angeles Center
Sun 12:08:33 AM 36.1478 -119.2247 346° North 486 559 36,200 927 Climbing Los Angeles Center
Sun 12:09:35 AM 36.2806 -119.2658 346° North 490 564 37,100 878 Climbing Los Angeles Center
Sun 12:10:36 AM 36.4136 -119.3056 346° North 491 565 38,000 443 Climbing Los Angeles Center
Sun 12:11:37 AM 36.5453 -119.3467 346° North 490 564 38,000  Level Los Angeles Center
Sun 12:12:38 AM 36.6778 -119.3869 346° North 492 566 38,000  Level Los Angeles Center
Sun 12:14:01 AM 36.8608 -119.4419 346° North 491 565 38,000  Level Oakland Center
Sun 12:15:02 AM 36.9925 -119.4814 347° North 488 562 38,000  Level Oakland Center
Sun 12:16:03 AM 37.1247 -119.5228 346° North 490 564 38,000  Level Oakland Center
Sun 12:17:04 AM 37.2556 -119.5631 346° North 487 560 38,000  Level Oakland Center
Sun 12:18:05 AM 37.4006 -119.6086 346° North 485 558 38,000  Level Oakland Center
Sun 12:19:05 AM 37.5322 -119.6503 346° North 486 559 38,000  Level Oakland Center
Sun 12:20:06 AM 37.6631 -119.6917 346° North 486 559 38,000  Level Oakland Center
Sun 12:21:07 AM 37.7944 -119.7325 346° North 485 558 38,000  Level Oakland Center
Sun 12:22:08 AM 37.9244 -119.7750 346° North 484 557 38,000  Level Oakland Center
Sun 12:23:09 AM 38.0564 -119.8164 346° North 489 563 38,000  Level Oakland Center
Sun 12:24:09 AM 38.1900 -119.8578 346° North 494 568 38,000  Level Oakland Center
Sun 12:25:10 AM 38.3200 -119.9000 346° North 489 563 38,000  Level Oakland Center
Sun 12:26:11 AM 38.4492 -119.9431 345° North 485 558 38,000  Level Oakland Center
Sun 12:27:12 AM 38.5817 -119.9858 346° North 493 567 38,000  Level Oakland Center
Sun 12:28:12 AM 38.7111 -120.0275 346° North 485 558 38,000  Level Oakland Center
Sun 12:29:13 AM 38.8667 -120.0778 346° North 484 557 38,000  Level Oakland Center
Sun 12:30:14 AM 38.9775 -120.1147 345° North 488 562 38,000  Level Oakland Center
Sun 12:31:15 AM 39.1306 -120.1639 346° North 490 564 38,000  Level Oakland Center
Sun 12:32:16 AM 39.2606 -120.2089 345° North 488 562 38,000  Level Oakland Center
Sun 12:33:16 AM 39.3928 -120.2519 346° North 489 563 38,000  Level Oakland Center
Sun 12:34:17 AM 39.5258 -120.2969 345° North 494 568 38,000  Level Oakland Center
Sun 12:35:18 AM 39.6572 -120.3408 346° North 492 566 38,000  Level Oakland Center
Sun 12:36:19 AM 39.7881 -120.3850 345° North 489 563 38,000  Level Oakland Center
Sun 12:37:19 AM 39.9194 -120.4292 346° North 489 563 38,000  Level Oakland Center
Sun 12:38:20 AM 40.0522 -120.4725 346° North 489 563 38,000  Level Oakland Center
Sun 12:39:21 AM 40.1881 -120.5169 346° North 498 573 38,000  Level Oakland Center
Sun 12:40:21 AM 40.3194 -120.5614 346° North 496 571 38,000  Level Oakland Center
Sun 12:41:22 AM 40.4519 -120.6075 345° North 494 568 38,000  Level Oakland Center
Sun 12:41:54 AM 40.5347 -120.6364 345° North 496 571 38,000  Level Seattle Center
Sun 12:42:54 AM 40.6675 -120.6822 345° North 495 570 38,000  Level Seattle Center
Sun 12:43:55 AM 40.7986 -120.7286 345° North 490 564 38,000  Level Seattle Center
Sun 12:44:55 AM 40.9308 -120.7750 345° North 492 566 38,000  Level Seattle Center
Sun 12:45:56 AM 41.0592 -120.8206 345° North 483 556 38,000  Level Seattle Center
Sun 12:46:56 AM 41.1858 -120.8636 346° North 474 545 38,000  Level Seattle Center
Sun 12:47:57 AM 41.3094 -120.9069 345° North 466 536 38,000  Level Seattle Center
Sun 12:48:57 AM 41.4322 -120.9497 345° North 459 528 38,000  Level Seattle Center
Sun 12:49:58 AM 41.5617 -120.9592 357° North 469 540 38,000  Level Seattle Center
Sun 12:50:58 AM 41.6886 -120.9006 19° North 487 560 38,000  Level Seattle Center
Sun 12:51:59 AM 41.7919 -120.7822 40° Northeast 499 574 38,000  Level Seattle Center
Sun 12:52:59 AM 41.8767 -120.6394 51° Northeast 496 571 38,000  Level Seattle Center
Sun 12:54:00 AM 42.0228 -120.5444 26° Northeast 495 570 38,000  Level Seattle Center
Sun 12:55:00 AM 42.1514 -120.5583 355° North 471 542 38,000  Level Seattle Center
Sun 12:56:01 AM 42.2711 -120.6236 338° Northwest 465 535 38,000  Level Seattle Center
Sun 12:57:01 AM 42.3897 -120.6858 339° North 460 529 38,000  Level Seattle Center
Sun 12:58:02 AM 42.5089 -120.7508 338° Northwest 463 533 38,000  Level Seattle Center
Sun 12:59:02 AM 42.6269 -120.8133 339° North 459 528 38,000  Level Seattle Center
Sun 01:00:03 AM 42.7442 -120.8767 338° Northwest 456 525 38,000  Level Seattle Center
Sun 01:01:03 AM 42.8594 -120.9397 338° Northwest 451 519 38,000  Level Seattle Center
Sun 01:02:04 AM 42.9758 -121.0028 338° Northwest 451 519 38,000  Level Seattle Center
Sun 01:03:04 AM 43.0925 -121.0656 339° North 453 521 38,000  Level Seattle Center
Sun 01:04:05 AM 43.2075 -121.1275 339° North 447 514 38,000  Level Seattle Center
Sun 01:05:05 AM 43.3222 -121.1900 338° Northwest 446 513 38,000  Level Seattle Center
Sun 01:06:06 AM 43.4378 -121.2539 338° Northwest 449 517 38,000  Level Seattle Center
Sun 01:07:06 AM 43.5508 -121.3142 339° North 443 510 38,000  Level Seattle Center
Sun 01:08:06 AM 43.6639 -121.3781 338° Northwest 441 507 38,000  Level Seattle Center
Sun 01:09:07 AM 43.7781 -121.4467 337° Northwest 444 511 38,000  Level Seattle Center
Sun 01:10:07 AM 43.9056 -121.5178 338° Northwest 444 511 38,000  Level Seattle Center
Sun 01:11:08 AM 44.0161 -121.5806 338° Northwest 433 498 38,000  Level Seattle Center
Sun 01:12:08 AM 44.1289 -121.6436 338° Northwest 435 501 38,000  Level Seattle Center
Sun 01:13:09 AM 44.2428 -121.7092 338° Northwest 442 509 38,000  Level Seattle Center
Sun 01:14:09 AM 44.3572 -121.7742 338° Northwest 444 511 38,000  Level Seattle Center
Sun 01:15:10 AM 44.4711 -121.8389 338° Northwest 441 507 38,000  Level Seattle Center
Sun 01:16:10 AM 44.5900 -121.9064 338° Northwest 441 507 38,000  Level Seattle Center
Sun 01:17:11 AM 44.7019 -121.9711 338° Northwest 439 505 38,000  Level Seattle Center
Sun 01:18:11 AM 44.8117 -122.0350 338° Northwest 430 495 38,000  Level Seattle Center
Sun 01:19:11 AM 44.9175 -122.0986 337° Northwest 416 479 38,000  Level Seattle Center
Sun 01:20:12 AM 45.0275 -122.1633 337° Northwest 426 490 38,000  Level Seattle Center
Sun 01:21:12 AM 45.1308 -122.2244 337° Northwest 419 482 38,000  Level Seattle Center
Sun 01:22:13 AM 45.2389 -122.2858 338° Northwest 416 479 38,000 -347 Level Seattle Center
Sun 01:23:13 AM 45.3461 -122.3506 337° Northwest 420 483 37,300 -750 Descending Seattle Center
Sun 01:24:13 AM 45.4531 -122.4147 337° Northwest 419 482 36,500 -843 Descending Seattle Center
Sun 01:25:14 AM 45.5639 -122.4808 337° Northwest 425 489 35,600 -942 Descending Seattle Center
Sun 01:26:14 AM 45.6767 -122.5508 337° Northwest 434 499 34,600 -1,636 Descending Seattle Center
Sun 01:27:15 AM 45.7858 -122.6075 340° North 431 496 32,300 -2,281 Descending Seattle Center
Sun 01:28:15 AM 45.8878 -122.6394 348° North 403 464 30,000 -2,100 Descending Seattle Center
Sun 01:29:15 AM 45.9817 -122.6922 339° North 384 442 28,100 -1,884 Descending Seattle Center
Sun 01:30:16 AM 46.0753 -122.7433 339° North 365 420 26,200 -1,884 Descending Seattle Center
Sun 01:31:16 AM 46.1728 -122.8011 338° Northwest 369 425 24,300 -2,000 Descending Seattle Center
Sun 01:32:16 AM 46.2781 -122.8625 338° Northwest 358 412 22,200 -1,785 Descending Seattle Center
Sun 01:33:17 AM 46.3694 -122.9139 339° North 355 409 20,700 -1,835 Descending Seattle Center
Sun 01:34:17 AM 46.4622 -122.8808 14° North 360 414 18,500 -1,934 Descending Seattle Center
Sun 01:35:18 AM 46.5542 -122.8303 21° North 357 411 16,800 -1,736 Descending Seattle Center
Sun 01:36:18 AM 46.6436 -122.7800 21° North 346 398 15,000 -1,900 Descending Seattle Center
Sun 01:37:18 AM 46.7392 -122.7272 21° North 339 390 13,000 -1,835 Descending Seattle Center
Sun 01:38:19 AM 46.8239 -122.6792 21° North 327 376 11,300 -1,388 Descending Seattle Center
Sun 01:39:19 AM 46.8914 -122.6022 38° Northeast 303 349 10,200 -1,050 Descending Seattle Center
Sun 01:40:19 AM 46.9503 -122.5242 42° Northeast 289 333 9,200 -1,091 Descending Seattle Center
Sun 01:41:20 AM 47.0092 -122.4475 42° Northeast 284 327 8,000 -1,190 Descending Seattle Center
Sun 01:42:20 AM 47.0728 -122.3917 31° Northeast 266 306 6,800 -843 Descending Seattle Center
Sun 01:43:21 AM 47.1358 -122.3431 28° Northeast 257 296 6,300 -692 Descending Seattle Center
Sun 01:44:30 AM 47.2017 -122.3275 North 206 237 5,300 -950 Descending Seattle Center
Sun 01:45:21 AM 47.2489 -122.3231 North 195 224 4,400 -1,071 Descending Seattle Center
Sun 01:46:22 AM 47.2969 -122.3200 North 174 200 3,300 -1,041 Descending Seattle Center
Sun 01:47:22 AM 47.3389 -122.3189 North 143 165 2,300 -843 Descending Seattle Center
Sun 01:48:23 AM 47.3769 -122.3183 North 138 159 1,600 -690 Descending Seattle Center
Sun 01:49:15 AM 47.4083 -122.3186 360° North 135 155 1,000 -600 Descending Seattle Center
Sun 01:50:23 AM 47.4453 -122.3186 360° North 133 153 400 -529 Descending Seattle Center
Sun 01:52:00 AM 47.4499 -122.3118 45° Northeast  Level Estimated

Login

Don't have an account? Register now (free) for customized features, flight alerts, and more!